<?xml version='1.0' encoding='UTF-8'?>
<gpx version="1.1" creator="https://www.komoot.de" xmlns="http://www.topografix.com/GPX/1/1" xmlns:xsi="http://www.w3.org/2001/XMLSchema-instance" xsi:schemaLocation="http://www.topografix.com/GPX/1/1 http://www.topografix.com/GPX/1/1/gpx.xsd">
  <metadata>
    <name>260501 Lugano Evening Walk</name>
    <author>
      <link href="https://www.komoot.de">
        <text>komoot</text>
        <type>text/html</type>
      </link>
    </author>
  </metadata>
  <trk>
    <name>260501 Lugano Evening Walk</name>
    <trkseg>
      <trkpt lat="45.992092" lon="8.942337">
        <ele>338.244059</ele>
        <time>2026-05-01T17:30:07.282Z</time>
      </trkpt>
      <trkpt lat="45.992004" lon="8.942448">
        <ele>338.244059</ele>
        <time>2026-05-01T17:30:58.583Z</time>
      </trkpt>
      <trkpt lat="45.991969" lon="8.942779">
        <ele>338.244059</ele>
        <time>2026-05-01T17:31:43.600Z</time>
      </trkpt>
      <trkpt lat="45.991885" lon="8.942721">
        <ele>338.244059</ele>
        <time>2026-05-01T17:32:05.579Z</time>
      </trkpt>
      <trkpt lat="45.991801" lon="8.942668">
        <ele>338.244059</ele>
        <time>2026-05-01T17:32:16.570Z</time>
      </trkpt>
      <trkpt lat="45.991708" lon="8.942687">
        <ele>338.244059</ele>
        <time>2026-05-01T17:32:26.581Z</time>
      </trkpt>
      <trkpt lat="45.991828" lon="8.942819">
        <ele>338.244059</ele>
        <time>2026-05-01T17:32:55.579Z</time>
      </trkpt>
      <trkpt lat="45.991730" lon="8.942888">
        <ele>338.244059</ele>
        <time>2026-05-01T17:33:36.585Z</time>
      </trkpt>
      <trkpt lat="45.991712" lon="8.943362">
        <ele>336.788494</ele>
        <time>2026-05-01T17:34:13.583Z</time>
      </trkpt>
      <trkpt lat="45.991622" lon="8.943338">
        <ele>336.370913</ele>
        <time>2026-05-01T17:34:25.585Z</time>
      </trkpt>
      <trkpt lat="45.991526" lon="8.943365">
        <ele>335.924663</ele>
        <time>2026-05-01T17:34:34.577Z</time>
      </trkpt>
      <trkpt lat="45.991436" lon="8.943369">
        <ele>335.513873</ele>
        <time>2026-05-01T17:34:42.582Z</time>
      </trkpt>
      <trkpt lat="45.991416" lon="8.943500">
        <ele>335.088744</ele>
        <time>2026-05-01T17:34:51.580Z</time>
      </trkpt>
      <trkpt lat="45.991397" lon="8.943641">
        <ele>334.633498</ele>
        <time>2026-05-01T17:34:59.578Z</time>
      </trkpt>
      <trkpt lat="45.991385" lon="8.943770">
        <ele>334.220966</ele>
        <time>2026-05-01T17:35:07.576Z</time>
      </trkpt>
      <trkpt lat="45.991360" lon="8.943904">
        <ele>333.781188</ele>
        <time>2026-05-01T17:35:15.574Z</time>
      </trkpt>
      <trkpt lat="45.991315" lon="8.944289">
        <ele>332.543730</ele>
        <time>2026-05-01T17:36:02.582Z</time>
      </trkpt>
      <trkpt lat="45.991295" lon="8.944420">
        <ele>332.118600</ele>
        <time>2026-05-01T17:36:11.572Z</time>
      </trkpt>
      <trkpt lat="45.991279" lon="8.944554">
        <ele>331.687642</ele>
        <time>2026-05-01T17:36:19.576Z</time>
      </trkpt>
      <trkpt lat="45.991273" lon="8.944700">
        <ele>331.224066</ele>
        <time>2026-05-01T17:36:27.578Z</time>
      </trkpt>
      <trkpt lat="45.991297" lon="8.944837">
        <ele>330.776234</ele>
        <time>2026-05-01T17:36:34.577Z</time>
      </trkpt>
      <trkpt lat="45.991300" lon="8.944968">
        <ele>330.360786</ele>
        <time>2026-05-01T17:36:41.579Z</time>
      </trkpt>
      <trkpt lat="45.991303" lon="8.945099">
        <ele>330.082266</ele>
        <time>2026-05-01T17:36:47.572Z</time>
      </trkpt>
      <trkpt lat="45.991260" lon="8.945222">
        <ele>330.288211</ele>
        <time>2026-05-01T17:36:54.569Z</time>
      </trkpt>
      <trkpt lat="45.991237" lon="8.945361">
        <ele>330.501925</ele>
        <time>2026-05-01T17:37:01.581Z</time>
      </trkpt>
      <trkpt lat="45.991227" lon="8.945497">
        <ele>330.706474</ele>
        <time>2026-05-01T17:37:10.578Z</time>
      </trkpt>
      <trkpt lat="45.991248" lon="8.945635">
        <ele>330.917770</ele>
        <time>2026-05-01T17:37:19.579Z</time>
      </trkpt>
      <trkpt lat="45.991244" lon="8.945773">
        <ele>331.124353</ele>
        <time>2026-05-01T17:37:28.572Z</time>
      </trkpt>
      <trkpt lat="45.991253" lon="8.945906">
        <ele>331.324220</ele>
        <time>2026-05-01T17:37:47.574Z</time>
      </trkpt>
      <trkpt lat="45.991205" lon="8.946028">
        <ele>331.533920</ele>
        <time>2026-05-01T17:37:54.578Z</time>
      </trkpt>
      <trkpt lat="45.991172" lon="8.946153">
        <ele>331.733922</ele>
        <time>2026-05-01T17:38:02.576Z</time>
      </trkpt>
      <trkpt lat="45.991171" lon="8.946289">
        <ele>331.937346</ele>
        <time>2026-05-01T17:38:11.579Z</time>
      </trkpt>
      <trkpt lat="45.991197" lon="8.946426">
        <ele>332.149761</ele>
        <time>2026-05-01T17:38:21.572Z</time>
      </trkpt>
      <trkpt lat="45.991253" lon="8.946712">
        <ele>332.594188</ele>
        <time>2026-05-01T17:39:20.585Z</time>
      </trkpt>
      <trkpt lat="45.991261" lon="8.946853">
        <ele>332.805781</ele>
        <time>2026-05-01T17:39:29.582Z</time>
      </trkpt>
      <trkpt lat="45.991187" lon="8.946942">
        <ele>333.013381</ele>
        <time>2026-05-01T17:39:38.581Z</time>
      </trkpt>
      <trkpt lat="45.991092" lon="8.946949">
        <ele>333.218163</ele>
        <time>2026-05-01T17:39:45.573Z</time>
      </trkpt>
      <trkpt lat="45.991004" lon="8.946993">
        <ele>333.418712</ele>
        <time>2026-05-01T17:39:54.577Z</time>
      </trkpt>
      <trkpt lat="45.990901" lon="8.946936">
        <ele>333.656272</ele>
        <time>2026-05-01T17:40:01.580Z</time>
      </trkpt>
      <trkpt lat="45.990964" lon="8.947032">
        <ele>333.853784</ele>
        <time>2026-05-01T17:40:21.579Z</time>
      </trkpt>
      <trkpt lat="45.990960" lon="8.946660">
        <ele>333.101205</ele>
        <time>2026-05-01T18:29:09.579Z</time>
      </trkpt>
      <trkpt lat="45.991048" lon="8.946602">
        <ele>332.763850</ele>
        <time>2026-05-01T18:29:21.570Z</time>
      </trkpt>
      <trkpt lat="45.991032" lon="8.947078">
        <ele>331.609801</ele>
        <time>2026-05-01T18:30:33.581Z</time>
      </trkpt>
      <trkpt lat="45.990935" lon="8.947110">
        <ele>331.262938</ele>
        <time>2026-05-01T18:30:37.576Z</time>
      </trkpt>
      <trkpt lat="45.990851" lon="8.947184">
        <ele>330.919666</ele>
        <time>2026-05-01T18:30:41.576Z</time>
      </trkpt>
      <trkpt lat="45.990766" lon="8.947235">
        <ele>330.598685</ele>
        <time>2026-05-01T18:30:47.571Z</time>
      </trkpt>
      <trkpt lat="45.990825" lon="8.947349">
        <ele>330.254442</ele>
        <time>2026-05-01T18:31:47.575Z</time>
      </trkpt>
      <trkpt lat="45.990900" lon="8.947421">
        <ele>329.940215</ele>
        <time>2026-05-01T18:31:55.575Z</time>
      </trkpt>
      <trkpt lat="45.991002" lon="8.947450">
        <ele>329.577822</ele>
        <time>2026-05-01T18:32:03.580Z</time>
      </trkpt>
      <trkpt lat="45.991099" lon="8.947454">
        <ele>329.239588</ele>
        <time>2026-05-01T18:32:11.575Z</time>
      </trkpt>
      <trkpt lat="45.991181" lon="8.947514">
        <ele>328.918962</ele>
        <time>2026-05-01T18:32:20.570Z</time>
      </trkpt>
      <trkpt lat="45.991255" lon="8.947591">
        <ele>328.600691</ele>
        <time>2026-05-01T18:32:29.568Z</time>
      </trkpt>
      <trkpt lat="45.991341" lon="8.947637">
        <ele>328.280907</ele>
        <time>2026-05-01T18:32:37.572Z</time>
      </trkpt>
      <trkpt lat="45.991423" lon="8.947708">
        <ele>327.947364</ele>
        <time>2026-05-01T18:32:46.579Z</time>
      </trkpt>
      <trkpt lat="45.991513" lon="8.947773">
        <ele>327.580305</ele>
        <time>2026-05-01T18:32:54.576Z</time>
      </trkpt>
      <trkpt lat="45.991606" lon="8.947821">
        <ele>327.112386</ele>
        <time>2026-05-01T18:33:02.573Z</time>
      </trkpt>
      <trkpt lat="45.991713" lon="8.947831">
        <ele>326.604556</ele>
        <time>2026-05-01T18:33:10.578Z</time>
      </trkpt>
      <trkpt lat="45.991802" lon="8.947898">
        <ele>326.128872</ele>
        <time>2026-05-01T18:33:19.576Z</time>
      </trkpt>
      <trkpt lat="45.991890" lon="8.947950">
        <ele>325.678340</ele>
        <time>2026-05-01T18:33:30.584Z</time>
      </trkpt>
      <trkpt lat="45.991963" lon="8.948038">
        <ele>325.227366</ele>
        <time>2026-05-01T18:34:27.575Z</time>
      </trkpt>
      <trkpt lat="45.992039" lon="8.948119">
        <ele>324.779487</ele>
        <time>2026-05-01T18:35:32.572Z</time>
      </trkpt>
      <trkpt lat="45.992082" lon="8.948238">
        <ele>324.338131</ele>
        <time>2026-05-01T18:35:51.592Z</time>
      </trkpt>
      <trkpt lat="45.992155" lon="8.948160">
        <ele>323.907545</ele>
        <time>2026-05-01T18:36:19.573Z</time>
      </trkpt>
      <trkpt lat="45.992144" lon="8.948019">
        <ele>323.440678</ele>
        <time>2026-05-01T18:36:30.586Z</time>
      </trkpt>
      <trkpt lat="45.992151" lon="8.947885">
        <ele>322.998515</ele>
        <time>2026-05-01T18:36:38.573Z</time>
      </trkpt>
      <trkpt lat="45.992202" lon="8.947766">
        <ele>322.538447</ele>
        <time>2026-05-01T18:36:46.577Z</time>
      </trkpt>
      <trkpt lat="45.992259" lon="8.947659">
        <ele>322.094787</ele>
        <time>2026-05-01T18:36:54.575Z</time>
      </trkpt>
      <trkpt lat="45.992324" lon="8.947565">
        <ele>321.658397</ele>
        <time>2026-05-01T18:37:02.574Z</time>
      </trkpt>
      <trkpt lat="45.992371" lon="8.947454">
        <ele>321.230674</ele>
        <time>2026-05-01T18:37:10.572Z</time>
      </trkpt>
      <trkpt lat="45.992430" lon="8.947339">
        <ele>320.760284</ele>
        <time>2026-05-01T18:37:19.576Z</time>
      </trkpt>
      <trkpt lat="45.992508" lon="8.947250">
        <ele>320.288874</ele>
        <time>2026-05-01T18:37:28.576Z</time>
      </trkpt>
      <trkpt lat="45.992584" lon="8.947177">
        <ele>319.856144</ele>
        <time>2026-05-01T18:37:36.574Z</time>
      </trkpt>
      <trkpt lat="45.992681" lon="8.947069">
        <ele>319.275341</ele>
        <time>2026-05-01T18:38:27.578Z</time>
      </trkpt>
      <trkpt lat="45.992757" lon="8.946997">
        <ele>319.339310</ele>
        <time>2026-05-01T18:38:36.577Z</time>
      </trkpt>
      <trkpt lat="45.992844" lon="8.946941">
        <ele>319.690717</ele>
        <time>2026-05-01T18:38:44.578Z</time>
      </trkpt>
      <trkpt lat="45.992926" lon="8.946876">
        <ele>320.035891</ele>
        <time>2026-05-01T18:38:52.570Z</time>
      </trkpt>
      <trkpt lat="45.993011" lon="8.946824">
        <ele>320.376442</ele>
        <time>2026-05-01T18:39:01.574Z</time>
      </trkpt>
      <trkpt lat="45.993097" lon="8.946777">
        <ele>320.715634</ele>
        <time>2026-05-01T18:39:09.572Z</time>
      </trkpt>
      <trkpt lat="45.993188" lon="8.946738">
        <ele>321.065732</ele>
        <time>2026-05-01T18:39:23.578Z</time>
      </trkpt>
      <trkpt lat="45.993226" lon="8.946617">
        <ele>321.405896</ele>
        <time>2026-05-01T18:39:33.573Z</time>
      </trkpt>
      <trkpt lat="45.993159" lon="8.946508">
        <ele>321.778722</ele>
        <time>2026-05-01T18:39:50.587Z</time>
      </trkpt>
      <trkpt lat="45.993152" lon="8.946376">
        <ele>322.117850</ele>
        <time>2026-05-01T18:39:58.574Z</time>
      </trkpt>
      <trkpt lat="45.993110" lon="8.946261">
        <ele>322.450671</ele>
        <time>2026-05-01T18:40:06.582Z</time>
      </trkpt>
      <trkpt lat="45.993190" lon="8.946176">
        <ele>322.817314</ele>
        <time>2026-05-01T18:40:22.573Z</time>
      </trkpt>
      <trkpt lat="45.993172" lon="8.946038">
        <ele>323.177005</ele>
        <time>2026-05-01T18:40:35.575Z</time>
      </trkpt>
      <trkpt lat="45.993107" lon="8.945945">
        <ele>323.514940</ele>
        <time>2026-05-01T18:40:43.574Z</time>
      </trkpt>
      <trkpt lat="45.993034" lon="8.945856">
        <ele>323.867691</ele>
        <time>2026-05-01T18:40:50.576Z</time>
      </trkpt>
      <trkpt lat="45.992976" lon="8.945752">
        <ele>324.209327</ele>
        <time>2026-05-01T18:40:58.577Z</time>
      </trkpt>
      <trkpt lat="45.992940" lon="8.945622">
        <ele>324.567830</ele>
        <time>2026-05-01T18:41:07.577Z</time>
      </trkpt>
      <trkpt lat="45.992917" lon="8.945494">
        <ele>324.906519</ele>
        <time>2026-05-01T18:41:16.574Z</time>
      </trkpt>
      <trkpt lat="45.992896" lon="8.945355">
        <ele>325.270919</ele>
        <time>2026-05-01T18:41:24.573Z</time>
      </trkpt>
      <trkpt lat="45.992877" lon="8.945215">
        <ele>325.636338</ele>
        <time>2026-05-01T18:41:32.574Z</time>
      </trkpt>
      <trkpt lat="45.992853" lon="8.945090">
        <ele>326.256713</ele>
        <time>2026-05-01T18:41:43.569Z</time>
      </trkpt>
      <trkpt lat="45.992772" lon="8.944837">
        <ele>327.932108</ele>
        <time>2026-05-01T18:44:58.579Z</time>
      </trkpt>
      <trkpt lat="45.992754" lon="8.944710">
        <ele>328.711649</ele>
        <time>2026-05-01T18:45:06.578Z</time>
      </trkpt>
      <trkpt lat="45.992725" lon="8.944585">
        <ele>329.504238</ele>
        <time>2026-05-01T18:45:15.577Z</time>
      </trkpt>
      <trkpt lat="45.992676" lon="8.944458">
        <ele>330.377927</ele>
        <time>2026-05-01T18:45:25.583Z</time>
      </trkpt>
      <trkpt lat="45.992636" lon="8.944328">
        <ele>331.233027</ele>
        <time>2026-05-01T18:45:39.569Z</time>
      </trkpt>
      <trkpt lat="45.992593" lon="8.944212">
        <ele>332.023775</ele>
        <time>2026-05-01T18:45:48.577Z</time>
      </trkpt>
      <trkpt lat="45.992517" lon="8.944126">
        <ele>332.860656</ele>
        <time>2026-05-01T18:45:57.573Z</time>
      </trkpt>
      <trkpt lat="45.992440" lon="8.944048">
        <ele>333.675750</ele>
        <time>2026-05-01T18:46:05.582Z</time>
      </trkpt>
      <trkpt lat="45.992376" lon="8.943956">
        <ele>334.458760</ele>
        <time>2026-05-01T18:46:13.584Z</time>
      </trkpt>
      <trkpt lat="45.992302" lon="8.943881">
        <ele>335.242233</ele>
        <time>2026-05-01T18:46:20.576Z</time>
      </trkpt>
      <trkpt lat="45.992217" lon="8.943810">
        <ele>336.092982</ele>
        <time>2026-05-01T18:46:27.571Z</time>
      </trkpt>
      <trkpt lat="45.992143" lon="8.943726">
        <ele>336.908821</ele>
        <time>2026-05-01T18:46:35.570Z</time>
      </trkpt>
      <trkpt lat="45.992082" lon="8.943623">
        <ele>337.722820</ele>
        <time>2026-05-01T18:46:43.579Z</time>
      </trkpt>
      <trkpt lat="45.992009" lon="8.943529">
        <ele>338.570738</ele>
        <time>2026-05-01T18:46:52.574Z</time>
      </trkpt>
      <trkpt lat="45.991976" lon="8.943403">
        <ele>339.380600</ele>
        <time>2026-05-01T18:46:59.583Z</time>
      </trkpt>
      <trkpt lat="45.991961" lon="8.943268">
        <ele>340.202852</ele>
        <time>2026-05-01T18:47:06.572Z</time>
      </trkpt>
      <trkpt lat="45.991919" lon="8.943152">
        <ele>340.989570</ele>
        <time>2026-05-01T18:47:14.575Z</time>
      </trkpt>
      <trkpt lat="45.991898" lon="8.943020">
        <ele>341.325080</ele>
        <time>2026-05-01T18:47:30.582Z</time>
      </trkpt>
      <trkpt lat="45.991870" lon="8.942895">
        <ele>341.325080</ele>
        <time>2026-05-01T18:47:39.576Z</time>
      </trkpt>
      <trkpt lat="45.991864" lon="8.942760">
        <ele>341.325080</ele>
        <time>2026-05-01T18:47:49.576Z</time>
      </trkpt>
      <trkpt lat="45.991851" lon="8.942628">
        <ele>341.325080</ele>
        <time>2026-05-01T18:48:01.574Z</time>
      </trkpt>
      <trkpt lat="45.991758" lon="8.942678">
        <ele>341.325080</ele>
        <time>2026-05-01T18:48:17.576Z</time>
      </trkpt>
      <trkpt lat="45.991849" lon="8.942621">
        <ele>341.325080</ele>
        <time>2026-05-01T18:48:35.576Z</time>
      </trkpt>
      <trkpt lat="45.991939" lon="8.942627">
        <ele>341.325080</ele>
        <time>2026-05-01T18:48:43.575Z</time>
      </trkpt>
      <trkpt lat="45.992019" lon="8.942558">
        <ele>341.325080</ele>
        <time>2026-05-01T18:48:51.574Z</time>
      </trkpt>
      <trkpt lat="45.992060" lon="8.942441">
        <ele>341.325080</ele>
        <time>2026-05-01T18:49:00.577Z</time>
      </trkpt>
      <trkpt lat="45.992153" lon="8.942429">
        <ele>341.325080</ele>
        <time>2026-05-01T18:49:10.574Z</time>
      </trkpt>
      <trkpt lat="45.992199" lon="8.942555">
        <ele>341.325080</ele>
        <time>2026-05-01T18:49:20.569Z</time>
      </trkpt>
      <trkpt lat="45.992200" lon="8.942705">
        <ele>341.325080</ele>
        <time>2026-05-01T18:49:33.573Z</time>
      </trkpt>
      <trkpt lat="45.992276" lon="8.942591">
        <ele>341.325080</ele>
        <time>2026-05-01T18:49:40.579Z</time>
      </trkpt>
    </trkseg>
  </trk>
</gpx>